Lechlade, United Kingdom
Current Conditions -  °F | °C
As of 1:58 PM on Friday 24 Oct 2014 (Local Time) from EGVA Reporting Station
Overcast Overcast  
Wind Chill: 60°   Ceiling: 1000
Heat Index: 60°   Visibility: 6mi
Dew Point: 57°   Wind: 10mph
Humidity: 91%   Direction: 210°SSW
Pressure: 29.9"   Gusts: NA
Location:  51.69°N, 1.69°W
Report Text: EGVA 241258Z AUTO 21009KT 9999 OVC010 16/14 A2990 RMK AO2 OVC V BKN SLP128 P1919 T01550141
Loading
Personal Weather Stations






























Interactive Weather Map
Tropical Storm Tracking
New forecast layout! Learn more

10-Day Weather Forecast

Advertisements
Track Severe Weather on mobile